Terminal Aerodrome Forecast
Issued by NWS Northern Indiana

Home | Current Version | Previous Version | Graphics & Text | Print | Product List | Glossary On
Versions: 1 2 3 4 5 6 7 8 9 10 11 12 13 14 15 16 17 18
000
FTUS43 KIWX 251700
TAFFWA
TAF
KFWA 251720Z 2518/2618 26013G22KT P6SM SCT008 OVC012
     FM252200 26013KT P6SM SCT015 BKN100
     FM260100 25005KT P6SM OVC080
     FM260800 32008KT 4SM -RA BR OVC015
     FM261100 33010KT 2SM -RASN OVC008
     FM261400 32010KT P6SM OVC020=

USA.gov is the U.S. government's official web portal to all federal, state and local government web resources and services.